Core, West Virginia
Current Conditions -  °F | °C
As of 8:53 AM on Tuesday 27 Jan 2015 (Local Time) from KMGW Reporting Station
Haze Haze  
Wind Chill: -11°   Ceiling: 1400
Heat Index: -7°   Visibility: 1.2mi
Dew Point: -10°   Wind: 6mph
Humidity: 78%   Direction: 320°NW
Pressure: 29.92"   Gusts: NA
Location:  39.68°N, 80.11°W
Report Text: KMGW 271353Z 32005KT 1 1/4SM HZ OVC014 M07/M10 A2992 RMK AO2 SLP148 T10671100
Loading
Personal Weather Stations






























Interactive Weather Map New forecast layout! Learn more

10-Day Weather Forecast

Advertisements
Track Severe Weather on mobile